sensor_id;sensor_type;location;lat;lon;timestamp;pressure;altitude;pressure_sealevel;temperature;humidity
10460;BME280;54412;51.206;6.888;2024-03-02T00:00:24;99355.94;;;9.28;71.19
10460;BME280;54412;51.206;6.888;2024-03-02T00:02:51;99360.53;;;9.25;71.26
10460;BME280;54412;51.206;6.888;2024-03-02T00:05:21;99357.22;;;9.35;70.99
10460;BME280;54412;51.206;6.888;2024-03-02T00:07:56;99354.69;;;9.34;71.06
10460;BME280;54412;51.206;6.888;2024-03-02T00:10:27;99350.19;;;9.36;70.91
10460;BME280;54412;51.206;6.888;2024-03-02T00:13:00;99349.31;;;9.35;71.14
10460;BME280;54412;51.206;6.888;2024-03-02T00:15:54;99353.06;;;9.45;70.34
10460;BME280;54412;51.206;6.888;2024-03-02T00:18:31;99355.22;;;9.39;71.09
10460;BME280;54412;51.206;6.888;2024-03-02T00:20:58;99345.03;;;9.34;70.99
10460;BME280;54412;51.206;6.888;2024-03-02T00:23:27;99344.75;;;9.25;71.66
10460;BME280;54412;51.206;6.888;2024-03-02T00:25:55;99330.72;;;9.38;70.99
10460;BME280;54412;51.206;6.888;2024-03-02T00:28:31;99334.66;;;9.19;71.66
10460;BME280;54412;51.206;6.888;2024-03-02T00:31:11;99334.09;;;9.40;71.08
10460;BME280;54412;51.206;6.888;2024-03-02T00:33:48;99336.59;;;9.29;71.23
10460;BME280;54412;51.206;6.888;2024-03-02T00:36:16;99324.41;;;9.14;72.29
10460;BME280;54412;51.206;6.888;2024-03-02T00:38:49;99322.97;;;9.23;72.09
10460;BME280;54412;51.206;6.888;2024-03-02T00:44:15;99318.06;;;9.31;71.32
10460;BME280;54412;51.206;6.888;2024-03-02T00:46:42;99312.16;;;9.27;71.93
10460;BME280;54412;51.206;6.888;2024-03-02T00:51:37;99323.00;;;9.35;71.75
10460;BME280;54412;51.206;6.888;2024-03-02T00:54:09;99317.84;;;9.34;71.49
10460;BME280;54412;51.206;6.888;2024-03-02T00:56:35;99315.56;;;9.42;71.24
10460;BME280;54412;51.206;6.888;2024-03-02T00:59:01;99324.66;;;9.50;70.55
10460;BME280;54412;51.206;6.888;2024-03-02T01:01:27;99322.50;;;9.43;70.60
10460;BME280;54412;51.206;6.888;2024-03-02T01:03:53;99329.75;;;9.39;71.17
10460;BME280;54412;51.206;6.888;2024-03-02T01:06:19;99319.13;;;9.41;70.93
10460;BME280;54412;51.206;6.888;2024-03-02T01:08:45;99318.44;;;9.52;70.70
10460;BME280;54412;51.206;6.888;2024-03-02T01:11:12;99324.41;;;9.41;70.84
10460;BME280;54412;51.206;6.888;2024-03-02T01:13:38;99336.28;;;9.73;69.85
10460;BME280;54412;51.206;6.888;2024-03-02T01:16:04;99326.38;;;9.64;69.88
10460;BME280;54412;51.206;6.888;2024-03-02T01:18:29;99328.16;;;9.64;69.85
10460;BME280;54412;51.206;6.888;2024-03-02T01:20:56;99319.09;;;9.55;70.21
10460;BME280;54412;51.206;6.888;2024-03-02T01:23:23;99331.72;;;9.63;70.00
10460;BME280;54412;51.206;6.888;2024-03-02T01:25:50;99329.09;;;9.63;69.65
10460;BME280;54412;51.206;6.888;2024-03-02T01:28:16;99328.44;;;9.59;69.69
10460;BME280;54412;51.206;6.888;2024-03-02T01:30:42;99338.78;;;9.62;69.11
10460;BME280;54412;51.206;6.888;2024-03-02T01:33:07;99338.06;;;9.73;68.97
10460;BME280;54412;51.206;6.888;2024-03-02T01:35:34;99333.88;;;9.83;68.40
10460;BME280;54412;51.206;6.888;2024-03-02T01:38:03;99336.19;;;9.75;68.69
10460;BME280;54412;51.206;6.888;2024-03-02T01:40:29;99337.56;;;9.80;68.37
10460;BME280;54412;51.206;6.888;2024-03-02T01:42:55;99328.19;;;9.76;68.30
10460;BME280;54412;51.206;6.888;2024-03-02T01:45:21;99324.47;;;9.66;68.77
10460;BME280;54412;51.206;6.888;2024-03-02T01:47:47;99329.44;;;9.71;68.77
10460;BME280;54412;51.206;6.888;2024-03-02T01:50:13;99317.00;;;9.73;68.46
10460;BME280;54412;51.206;6.888;2024-03-02T01:52:40;99314.41;;;9.85;68.24
10460;BME280;54412;51.206;6.888;2024-03-02T01:55:06;99311.41;;;9.77;68.00
10460;BME280;54412;51.206;6.888;2024-03-02T01:57:34;99304.78;;;9.84;68.14
10460;BME280;54412;51.206;6.888;2024-03-02T02:00:00;99303.34;;;9.80;68.00
10460;BME280;54412;51.206;6.888;2024-03-02T02:02:27;99306.78;;;9.81;67.98
10460;BME280;54412;51.206;6.888;2024-03-02T02:04:52;99314.50;;;9.71;67.73
10460;BME280;54412;51.206;6.888;2024-03-02T02:07:18;99313.88;;;9.80;67.59
10460;BME280;54412;51.206;6.888;2024-03-02T02:09:44;99321.66;;;9.82;67.61
10460;BME280;54412;51.206;6.888;2024-03-02T02:12:10;99308.59;;;9.80;67.71
10460;BME280;54412;51.206;6.888;2024-03-02T02:14:36;99308.00;;;10.02;66.82
10460;BME280;54412;51.206;6.888;2024-03-02T02:17:02;99312.75;;;10.09;66.70
10460;BME280;54412;51.206;6.888;2024-03-02T02:19:28;99298.81;;;10.07;66.45
10460;BME280;54412;51.206;6.888;2024-03-02T02:21:55;99311.25;;;9.93;66.28
10460;BME280;54412;51.206;6.888;2024-03-02T02:24:20;99305.66;;;9.97;66.17
10460;BME280;54412;51.206;6.888;2024-03-02T02:26:46;99324.31;;;10.07;66.21
10460;BME280;54412;51.206;6.888;2024-03-02T02:29:12;99311.28;;;10.18;65.50
10460;BME280;54412;51.206;6.888;2024-03-02T02:31:38;99322.31;;;9.98;66.26
10460;BME280;54412;51.206;6.888;2024-03-02T02:34:05;99327.75;;;9.95;66.19
10460;BME280;54412;51.206;6.888;2024-03-02T02:36:32;99321.16;;;10.02;65.99
10460;BME280;54412;51.206;6.888;2024-03-02T02:39:03;99327.63;;;10.10;65.73
10460;BME280;54412;51.206;6.888;2024-03-02T02:41:30;99330.88;;;10.14;65.21
10460;BME280;54412;51.206;6.888;2024-03-02T02:43:56;99319.59;;;10.24;64.81
10460;BME280;54412;51.206;6.888;2024-03-02T02:46:22;99330.78;;;10.15;64.90
10460;BME280;54412;51.206;6.888;2024-03-02T02:48:48;99321.09;;;10.16;65.30
10460;BME280;54412;51.206;6.888;2024-03-02T02:51:13;99316.34;;;10.21;64.96
10460;BME280;54412;51.206;6.888;2024-03-02T02:53:39;99319.72;;;10.10;64.99
10460;BME280;54412;51.206;6.888;2024-03-02T02:56:06;99306.94;;;10.17;64.96
10460;BME280;54412;51.206;6.888;2024-03-02T02:58:32;99299.47;;;10.23;65.17
10460;BME280;54412;51.206;6.888;2024-03-02T03:00:58;99308.94;;;10.26;64.89
10460;BME280;54412;51.206;6.888;2024-03-02T03:03:23;99314.03;;;10.29;64.37
10460;BME280;54412;51.206;6.888;2024-03-02T03:05:49;99308.94;;;10.26;64.53
10460;BME280;54412;51.206;6.888;2024-03-02T03:08:15;99308.94;;;10.26;64.44
10460;BME280;54412;51.206;6.888;2024-03-02T03:10:42;99312.44;;;10.26;64.67
10460;BME280;54412;51.206;6.888;2024-03-02T03:13:08;99310.44;;;10.30;64.42
10460;BME280;54412;51.206;6.888;2024-03-02T03:15:37;99307.59;;;10.20;64.69
10460;BME280;54412;51.206;6.888;2024-03-02T03:18:04;99328.47;;;10.11;65.11
10460;BME280;54412;51.206;6.888;2024-03-02T03:20:30;99312.09;;;10.18;64.68
10460;BME280;54412;51.206;6.888;2024-03-02T03:23:00;99312.94;;;10.31;64.31
10460;BME280;54412;51.206;6.888;2024-03-02T03:25:25;99328.34;;;10.25;64.25
10460;BME280;54412;51.206;6.888;2024-03-02T03:27:51;99326.03;;;10.20;64.55
10460;BME280;54412;51.206;6.888;2024-03-02T03:30:20;99321.72;;;10.19;64.74
10460;BME280;54412;51.206;6.888;2024-03-02T03:32:45;99310.97;;;10.22;64.43
10460;BME280;54412;51.206;6.888;2024-03-02T03:35:13;99326.25;;;10.30;64.32
10460;BME280;54412;51.206;6.888;2024-03-02T03:37:40;99321.09;;;10.28;64.43
10460;BME280;54412;51.206;6.888;2024-03-02T03:40:07;99327.72;;;10.21;64.83
10460;BME280;54412;51.206;6.888;2024-03-02T03:42:39;99323.72;;;10.16;64.56
10460;BME280;54412;51.206;6.888;2024-03-02T03:45:08;99330.25;;;10.23;64.67
10460;BME280;54412;51.206;6.888;2024-03-02T03:47:33;99334.66;;;10.22;64.75
10460;BME280;54412;51.206;6.888;2024-03-02T03:49:59;99330.78;;;10.28;64.32
10460;BME280;54412;51.206;6.888;2024-03-02T03:52:25;99338.44;;;10.18;64.54
10460;BME280;54412;51.206;6.888;2024-03-02T03:54:51;99332.56;;;10.15;64.69
10460;BME280;54412;51.206;6.888;2024-03-02T03:57:17;99337.19;;;10.11;64.82
10460;BME280;54412;51.206;6.888;2024-03-02T03:59:43;99342.06;;;10.17;64.98
10460;BME280;54412;51.206;6.888;2024-03-02T04:02:09;99338.69;;;10.15;64.92
10460;BME280;54412;51.206;6.888;2024-03-02T04:04:35;99328.34;;;10.12;65.30
10460;BME280;54412;51.206;6.888;2024-03-02T04:07:01;99330.72;;;10.03;65.49
10460;BME280;54412;51.206;6.888;2024-03-02T04:09:27;99329.88;;;10.02;65.58
10460;BME280;54412;51.206;6.888;2024-03-02T04:11:53;99332.63;;;10.01;65.57
10460;BME280;54412;51.206;6.888;2024-03-02T04:14:19;99343.16;;;9.88;65.88
10460;BME280;54412;51.206;6.888;2024-03-02T04:16:45;99333.75;;;9.84;65.91
10460;BME280;54412;51.206;6.888;2024-03-02T04:19:10;99331.56;;;9.91;66.05
10460;BME280;54412;51.206;6.888;2024-03-02T04:21:36;99340.31;;;10.04;65.38
10460;BME280;54412;51.206;6.888;2024-03-02T04:24:02;99336.31;;;9.98;65.76
10460;BME280;54412;51.206;6.888;2024-03-02T04:26:28;99334.31;;;9.89;66.17
10460;BME280;54412;51.206;6.888;2024-03-02T04:28:54;99338.63;;;9.90;65.88
10460;BME280;54412;51.206;6.888;2024-03-02T04:31:21;99337.63;;;9.66;66.67
10460;BME280;54412;51.206;6.888;2024-03-02T04:33:47;99343.66;;;9.81;66.64
10460;BME280;54412;51.206;6.888;2024-03-02T04:36:12;99337.13;;;9.74;66.66
10460;BME280;54412;51.206;6.888;2024-03-02T04:38:38;99345.88;;;9.74;66.98
10460;BME280;54412;51.206;6.888;2024-03-02T04:41:05;99353.22;;;9.57;67.52
10460;BME280;54412;51.206;6.888;2024-03-02T04:43:34;99349.22;;;9.64;67.32
10460;BME280;54412;51.206;6.888;2024-03-02T04:46:01;99349.88;;;9.80;66.90
10460;BME280;54412;51.206;6.888;2024-03-02T04:48:27;99337.44;;;9.69;67.17
10460;BME280;54412;51.206;6.888;2024-03-02T04:50:52;99339.13;;;9.70;67.25
10460;BME280;54412;51.206;6.888;2024-03-02T04:53:18;99335.41;;;9.60;67.45
10460;BME280;54412;51.206;6.888;2024-03-02T04:55:44;99335.22;;;9.63;67.65
10460;BME280;54412;51.206;6.888;2024-03-02T04:58:10;99343.41;;;9.59;67.69
10460;BME280;54412;51.206;6.888;2024-03-02T05:00:35;99338.69;;;9.64;67.61
10460;BME280;54412;51.206;6.888;2024-03-02T05:03:02;99334.88;;;9.55;67.95
10460;BME280;54412;51.206;6.888;2024-03-02T05:05:28;99349.06;;;9.52;68.22
10460;BME280;54412;51.206;6.888;2024-03-02T05:07:54;99349.84;;;9.67;67.79
10460;BME280;54412;51.206;6.888;2024-03-02T05:10:19;99357.06;;;9.51;68.28
10460;BME280;54412;51.206;6.888;2024-03-02T05:12:45;99350.47;;;9.58;67.94
10460;BME280;54412;51.206;6.888;2024-03-02T05:15:14;99342.47;;;9.60;68.09
10460;BME280;54412;51.206;6.888;2024-03-02T05:17:41;99333.28;;;9.52;68.32
10460;BME280;54412;51.206;6.888;2024-03-02T05:20:10;99333.50;;;9.23;69.39
10460;BME280;54412;51.206;6.888;2024-03-02T05:22:37;99332.06;;;9.31;69.23
10460;BME280;54412;51.206;6.888;2024-03-02T05:25:04;99334.91;;;9.41;68.77
10460;BME280;54412;51.206;6.888;2024-03-02T05:27:30;99340.19;;;9.41;68.74
10460;BME280;54412;51.206;6.888;2024-03-02T05:29:56;99354.91;;;9.31;69.05
10460;BME280;54412;51.206;6.888;2024-03-02T05:32:23;99366.56;;;9.27;69.33
10460;BME280;54412;51.206;6.888;2024-03-02T05:34:49;99360.66;;;9.23;69.51
10460;BME280;54412;51.206;6.888;2024-03-02T05:37:17;99356.41;;;9.08;69.85
10460;BME280;54412;51.206;6.888;2024-03-02T05:39:42;99361.59;;;9.22;69.48
10460;BME280;54412;51.206;6.888;2024-03-02T05:42:09;99357.53;;;9.31;69.07
10460;BME280;54412;51.206;6.888;2024-03-02T05:44:38;99363.94;;;9.27;69.44
10460;BME280;54412;51.206;6.888;2024-03-02T05:47:05;99350.94;;;9.38;68.74
10460;BME280;54412;51.206;6.888;2024-03-02T05:49:30;99366.22;;;9.45;71.95
10460;BME280;54412;51.206;6.888;2024-03-02T05:51:56;99348.69;;;9.59;72.17
10460;BME280;54412;51.206;6.888;2024-03-02T05:54:22;99356.09;;;9.39;69.74
10460;BME280;54412;51.206;6.888;2024-03-02T05:56:48;99360.78;;;9.61;70.62
10460;BME280;54412;51.206;6.888;2024-03-02T05:59:13;99345.91;;;9.47;70.81
10460;BME280;54412;51.206;6.888;2024-03-02T06:01:40;99353.34;;;9.68;70.01
10460;BME280;54412;51.206;6.888;2024-03-02T06:04:07;99360.00;;;9.73;68.65
10460;BME280;54412;51.206;6.888;2024-03-02T06:06:33;99370.13;;;9.52;68.92
10460;BME280;54412;51.206;6.888;2024-03-02T06:09:01;99362.97;;;9.55;69.21
10460;BME280;54412;51.206;6.888;2024-03-02T06:11:28;99366.53;;;9.80;68.67
10460;BME280;54412;51.206;6.888;2024-03-02T06:13:54;99376.59;;;9.74;68.36
10460;BME280;54412;51.206;6.888;2024-03-02T06:16:19;99386.19;;;9.62;68.73
10460;BME280;54412;51.206;6.888;2024-03-02T06:18:45;99374.78;;;9.62;68.84
10460;BME280;54412;51.206;6.888;2024-03-02T06:21:10;99370.78;;;9.56;68.51
10460;BME280;54412;51.206;6.888;2024-03-02T06:23:36;99383.44;;;9.64;68.41
10460;BME280;54412;51.206;6.888;2024-03-02T06:26:02;99390.53;;;9.76;67.77
10460;BME280;54412;51.206;6.888;2024-03-02T06:28:28;99387.06;;;9.48;69.06
10460;BME280;54412;51.206;6.888;2024-03-02T06:30:54;99387.97;;;9.62;68.67
10460;BME280;54412;51.206;6.888;2024-03-02T06:33:20;99407.72;;;9.55;68.88
10460;BME280;54412;51.206;6.888;2024-03-02T06:35:45;99406.53;;;9.73;68.50
10460;BME280;54412;51.206;6.888;2024-03-02T06:38:11;99411.47;;;9.77;67.25
10460;BME280;54412;51.206;6.888;2024-03-02T06:40:37;99411.91;;;9.71;67.70
10460;BME280;54412;51.206;6.888;2024-03-02T06:43:05;99417.03;;;9.60;67.58
10460;BME280;54412;51.206;6.888;2024-03-02T06:45:30;99420.63;;;9.45;68.56
10460;BME280;54412;51.206;6.888;2024-03-02T06:47:56;99422.28;;;9.33;69.08
10460;BME280;54412;51.206;6.888;2024-03-02T06:50:22;99417.06;;;9.46;68.82
10460;BME280;54412;51.206;6.888;2024-03-02T06:52:47;99423.38;;;9.43;68.88
10460;BME280;54412;51.206;6.888;2024-03-02T06:55:13;99421.63;;;9.30;69.32
10460;BME280;54412;51.206;6.888;2024-03-02T06:57:39;99426.91;;;9.30;69.42
10460;BME280;54412;51.206;6.888;2024-03-02T07:00:05;99428.03;;;9.26;69.76
10460;BME280;54412;51.206;6.888;2024-03-02T07:02:35;99417.09;;;9.32;69.45
10460;BME280;54412;51.206;6.888;2024-03-02T07:05:02;99421.69;;;9.28;69.78
10460;BME280;54412;51.206;6.888;2024-03-02T07:07:28;99431.47;;;9.40;69.53
10460;BME280;54412;51.206;6.888;2024-03-02T07:09:53;99435.03;;;9.39;69.65
10460;BME280;54412;51.206;6.888;2024-03-02T07:12:19;99422.28;;;9.60;69.05
10460;BME280;54412;51.206;6.888;2024-03-02T07:14:45;99430.34;;;9.57;69.15
10460;BME280;54412;51.206;6.888;2024-03-02T07:17:33;99437.75;;;9.65;68.75
10460;BME280;54412;51.206;6.888;2024-03-02T07:19:59;99427.34;;;9.63;68.56
10460;BME280;54412;51.206;6.888;2024-03-02T07:22:25;99429.38;;;9.72;68.65
10460;BME280;54412;51.206;6.888;2024-03-02T07:24:51;99434.13;;;9.80;68.33
10460;BME280;54412;51.206;6.888;2024-03-02T07:27:17;99444.97;;;9.75;68.35
10460;BME280;54412;51.206;6.888;2024-03-02T07:29:43;99439.41;;;9.80;67.97
10460;BME280;54412;51.206;6.888;2024-03-02T07:32:10;99432.75;;;9.74;68.15
10460;BME280;54412;51.206;6.888;2024-03-02T07:34:36;99435.00;;;9.80;68.12
10460;BME280;54412;51.206;6.888;2024-03-02T07:37:03;99440.53;;;9.76;68.28
10460;BME280;54412;51.206;6.888;2024-03-02T07:39:29;99450.47;;;9.85;67.99
10460;BME280;54412;51.206;6.888;2024-03-02T07:41:55;99444.16;;;10.14;67.53
10460;BME280;54412;51.206;6.888;2024-03-02T07:44:22;99446.16;;;10.10;67.18
10460;BME280;54412;51.206;6.888;2024-03-02T07:46:49;99432.50;;;10.04;67.73
10460;BME280;54412;51.206;6.888;2024-03-02T07:49:18;99431.94;;;9.86;67.98
10460;BME280;54412;51.206;6.888;2024-03-02T07:51:44;99432.78;;;10.13;67.11
10460;BME280;54412;51.206;6.888;2024-03-02T07:54:10;99432.06;;;10.24;66.95
10460;BME280;54412;51.206;6.888;2024-03-02T07:56:36;99435.66;;;10.48;66.65
10460;BME280;54412;51.206;6.888;2024-03-02T07:59:03;99458.03;;;10.80;65.49
10460;BME280;54412;51.206;6.888;2024-03-02T08:01:33;99453.25;;;10.98;64.38
10460;BME280;54412;51.206;6.888;2024-03-02T08:04:00;99464.66;;;11.11;64.09
10460;BME280;54412;51.206;6.888;2024-03-02T08:06:27;99460.53;;;11.07;63.87
10460;BME280;54412;51.206;6.888;2024-03-02T08:08:58;99471.59;;;11.12;63.13
10460;BME280;54412;51.206;6.888;2024-03-02T08:11:24;99492.72;;;11.12;63.65
10460;BME280;54412;51.206;6.888;2024-03-02T08:13:50;99486.91;;;11.19;63.11
10460;BME280;54412;51.206;6.888;2024-03-02T08:16:18;99486.22;;;11.41;62.39
10460;BME280;54412;51.206;6.888;2024-03-02T08:18:47;99493.25;;;11.17;62.86
10460;BME280;54412;51.206;6.888;2024-03-02T08:21:14;99482.72;;;11.40;62.52
10460;BME280;54412;51.206;6.888;2024-03-02T08:23:40;99487.16;;;11.65;61.42
10460;BME280;54412;51.206;6.888;2024-03-02T08:26:10;99485.03;;;11.57;61.84
10460;BME280;54412;51.206;6.888;2024-03-02T08:28:36;99480.03;;;11.78;60.80
10460;BME280;54412;51.206;6.888;2024-03-02T08:31:08;99482.69;;;12.13;59.88
10460;BME280;54412;51.206;6.888;2024-03-02T08:33:35;99463.41;;;12.69;59.05
10460;BME280;54412;51.206;6.888;2024-03-02T08:36:01;99463.38;;;12.58;57.90
10460;BME280;54412;51.206;6.888;2024-03-02T08:38:27;99457.41;;;12.21;59.11
10460;BME280;54412;51.206;6.888;2024-03-02T08:40:53;99460.66;;;12.25;59.23
10460;BME280;54412;51.206;6.888;2024-03-02T08:43:19;99473.34;;;12.54;58.30
10460;BME280;54412;51.206;6.888;2024-03-02T08:45:45;99469.06;;;12.30;58.34
10460;BME280;54412;51.206;6.888;2024-03-02T08:48:12;99455.66;;;12.09;58.63
10460;BME280;54412;51.206;6.888;2024-03-02T08:50:38;99497.19;;;12.07;58.92
10460;BME280;54412;51.206;6.888;2024-03-02T08:53:04;99463.03;;;11.93;59.48
10460;BME280;54412;51.206;6.888;2024-03-02T08:55:30;99466.38;;;12.19;58.94
10460;BME280;54412;51.206;6.888;2024-03-02T08:57:56;99463.59;;;12.44;58.80
10460;BME280;54412;51.206;6.888;2024-03-02T09:00:22;99473.09;;;12.57;57.68
10460;BME280;54412;51.206;6.888;2024-03-02T09:02:48;99474.72;;;12.71;57.36
10460;BME280;54412;51.206;6.888;2024-03-02T09:05:14;99469.56;;;12.35;57.77
10460;BME280;54412;51.206;6.888;2024-03-02T09:07:40;99482.41;;;12.74;57.46
10460;BME280;54412;51.206;6.888;2024-03-02T09:10:07;99495.34;;;13.45;55.69
10460;BME280;54412;51.206;6.888;2024-03-02T09:12:33;99490.41;;;13.29;55.66
10460;BME280;54412;51.206;6.888;2024-03-02T09:15:01;99492.44;;;13.59;54.66
10460;BME280;54412;51.206;6.888;2024-03-02T09:17:28;99488.47;;;13.53;54.80
10460;BME280;54412;51.206;6.888;2024-03-02T09:19:54;99495.81;;;13.39;54.92
10460;BME280;54412;51.206;6.888;2024-03-02T09:22:20;99495.81;;;13.50;55.15
10460;BME280;54412;51.206;6.888;2024-03-02T09:24:45;99495.75;;;13.83;54.50
10460;BME280;54412;51.206;6.888;2024-03-02T09:27:11;99501.09;;;13.50;54.27
10460;BME280;54412;51.206;6.888;2024-03-02T09:29:37;99493.16;;;13.50;54.63
10460;BME280;54412;51.206;6.888;2024-03-02T09:32:05;99480.34;;;13.77;53.97
10460;BME280;54412;51.206;6.888;2024-03-02T09:34:31;99494.28;;;13.90;53.73
10460;BME280;54412;51.206;6.888;2024-03-02T09:36:58;99486.06;;;14.36;52.38
10460;BME280;54412;51.206;6.888;2024-03-02T09:39:24;99487.44;;;14.51;51.63
10460;BME280;54412;51.206;6.888;2024-03-02T09:41:51;99488.69;;;14.68;51.24
10460;BME280;54412;51.206;6.888;2024-03-02T09:44:17;99477.81;;;15.01;50.24
10460;BME280;54412;51.206;6.888;2024-03-02T09:46:43;99483.56;;;15.06;50.20
10460;BME280;54412;51.206;6.888;2024-03-02T09:49:12;99491.28;;;15.09;50.53
10460;BME280;54412;51.206;6.888;2024-03-02T09:51:40;99494.44;;;14.73;50.67
10460;BME280;54412;51.206;6.888;2024-03-02T09:54:08;99492.25;;;14.57;51.04
10460;BME280;54412;51.206;6.888;2024-03-02T09:56:33;99493.88;;;14.06;52.07
10460;BME280;54412;51.206;6.888;2024-03-02T09:58:59;99485.75;;;13.87;52.97
10460;BME280;54412;51.206;6.888;2024-03-02T10:01:25;99479.97;;;13.82;53.45
10460;BME280;54412;51.206;6.888;2024-03-02T10:03:51;99481.53;;;13.84;54.06
10460;BME280;54412;51.206;6.888;2024-03-02T10:06:28;99480.78;;;13.93;53.37
10460;BME280;54412;51.206;6.888;2024-03-02T10:08:55;99476.88;;;14.40;52.84
10460;BME280;54412;51.206;6.888;2024-03-02T10:11:32;99477.59;;;15.13;50.89
10460;BME280;54412;51.206;6.888;2024-03-02T10:14:13;99489.63;;;14.87;50.44
10460;BME280;54412;51.206;6.888;2024-03-02T10:16:44;99477.41;;;14.54;50.82
10460;BME280;54412;51.206;6.888;2024-03-02T10:21:54;99482.00;;;14.73;49.99
10460;BME280;54412;51.206;6.888;2024-03-02T10:24:22;99490.84;;;14.62;51.03
10460;BME280;54412;51.206;6.888;2024-03-02T10:26:49;99482.25;;;14.91;50.18
10460;BME280;54412;51.206;6.888;2024-03-02T10:29:16;99481.63;;;15.08;49.26
10460;BME280;54412;51.206;6.888;2024-03-02T10:31:44;99476.78;;;15.43;48.24
10460;BME280;54412;51.206;6.888;2024-03-02T10:34:12;99477.13;;;15.29;49.09
10460;BME280;54412;51.206;6.888;2024-03-02T10:36:42;99476.69;;;15.63;48.71
10460;BME280;54412;51.206;6.888;2024-03-02T10:39:09;99478.38;;;15.64;48.25
10460;BME280;54412;51.206;6.888;2024-03-02T10:41:37;99468.56;;;15.55;48.03
10460;BME280;54412;51.206;6.888;2024-03-02T10:44:05;99472.81;;;15.87;47.77
10460;BME280;54412;51.206;6.888;2024-03-02T10:46:33;99487.88;;;15.57;47.01
10460;BME280;54412;51.206;6.888;2024-03-02T10:49:01;99465.81;;;15.36;48.49
10460;BME280;54412;51.206;6.888;2024-03-02T10:51:30;99459.94;;;15.63;47.88
10460;BME280;54412;51.206;6.888;2024-03-02T10:54:00;99463.41;;;15.54;47.16
10460;BME280;54412;51.206;6.888;2024-03-02T10:56:44;99461.59;;;15.64;46.74
10460;BME280;54412;51.206;6.888;2024-03-02T10:59:26;99451.47;;;15.18;47.54
10460;BME280;54412;51.206;6.888;2024-03-02T11:01:57;99462.44;;;14.95;48.62
10460;BME280;54412;51.206;6.888;2024-03-02T11:04:28;99467.31;;;15.20;47.80
10460;BME280;54412;51.206;6.888;2024-03-02T11:07:04;99454.56;;;15.14;48.08
10460;BME280;54412;51.206;6.888;2024-03-02T11:09:34;99442.03;;;15.35;47.58
10460;BME280;54412;51.206;6.888;2024-03-02T11:12:13;99437.66;;;15.64;47.77
10460;BME280;54412;51.206;6.888;2024-03-02T11:14:42;99452.28;;;15.39;47.30
10460;BME280;54412;51.206;6.888;2024-03-02T11:17:14;99445.66;;;15.64;47.43
10460;BME280;54412;51.206;6.888;2024-03-02T11:19:43;99434.91;;;16.23;46.06
10460;BME280;54412;51.206;6.888;2024-03-02T11:22:12;99437.84;;;16.10;45.85
10460;BME280;54412;51.206;6.888;2024-03-02T11:24:37;99430.16;;;16.07;45.67
10460;BME280;54412;51.206;6.888;2024-03-02T11:27:05;99434.78;;;16.05;45.40
10460;BME280;54412;51.206;6.888;2024-03-02T11:32:03;99436.56;;;15.76;46.23
10460;BME280;54412;51.206;6.888;2024-03-02T11:34:35;99419.94;;;15.84;46.16
10460;BME280;54412;51.206;6.888;2024-03-02T11:37:04;99430.97;;;16.17;45.56
10460;BME280;54412;51.206;6.888;2024-03-02T11:39:31;99443.00;;;16.69;45.07
10460;BME280;54412;51.206;6.888;2024-03-02T11:41:58;99435.19;;;16.29;45.34
10460;BME280;54412;51.206;6.888;2024-03-02T11:44:27;99439.91;;;16.73;44.35
10460;BME280;54412;51.206;6.888;2024-03-02T11:47:07;99443.28;;;16.76;44.16
10460;BME280;54412;51.206;6.888;2024-03-02T11:49:50;99422.03;;;16.09;45.11
10460;BME280;54412;51.206;6.888;2024-03-02T11:52:22;99426.09;;;16.22;45.49
10460;BME280;54412;51.206;6.888;2024-03-02T11:54:48;99419.75;;;16.42;45.66
10460;BME280;54412;51.206;6.888;2024-03-02T11:57:19;99418.22;;;16.59;45.13
10460;BME280;54412;51.206;6.888;2024-03-02T11:59:48;99414.06;;;16.28;45.33
10460;BME280;54412;51.206;6.888;2024-03-02T12:02:20;99408.56;;;16.58;44.88
10460;BME280;54412;51.206;6.888;2024-03-02T12:04:48;99408.97;;;16.63;44.19
10460;BME280;54412;51.206;6.888;2024-03-02T12:07:22;99418.13;;;16.51;45.00
10460;BME280;54412;51.206;6.888;2024-03-02T12:09:59;99411.38;;;16.47;44.40
10460;BME280;54412;51.206;6.888;2024-03-02T12:12:25;99399.22;;;15.87;46.00
10460;BME280;54412;51.206;6.888;2024-03-02T12:14:53;99404.75;;;15.46;46.41
10460;BME280;54412;51.206;6.888;2024-03-02T12:17:21;99409.53;;;15.12;47.59
10460;BME280;54412;51.206;6.888;2024-03-02T12:19:48;99390.47;;;15.37;47.37
10460;BME280;54412;51.206;6.888;2024-03-02T12:22:14;99393.19;;;15.66;46.67
10460;BME280;54412;51.206;6.888;2024-03-02T12:24:41;99380.69;;;15.38;47.48
10460;BME280;54412;51.206;6.888;2024-03-02T12:27:07;99386.53;;;15.32;47.32
10460;BME280;54412;51.206;6.888;2024-03-02T12:29:34;99381.34;;;15.30;47.62
10460;BME280;54412;51.206;6.888;2024-03-02T12:32:00;99381.38;;;14.91;48.63
10460;BME280;54412;51.206;6.888;2024-03-02T12:34:28;99384.19;;;14.68;49.48
10460;BME280;54412;51.206;6.888;2024-03-02T12:36:53;99390.50;;;14.68;49.44
10460;BME280;54412;51.206;6.888;2024-03-02T12:39:20;99380.13;;;14.64;49.85
10460;BME280;54412;51.206;6.888;2024-03-02T12:41:50;99370.50;;;14.63;49.75
10460;BME280;54412;51.206;6.888;2024-03-02T12:44:17;99402.19;;;14.65;49.49
10460;BME280;54412;51.206;6.888;2024-03-02T12:46:44;99363.31;;;14.54;49.67
10460;BME280;54412;51.206;6.888;2024-03-02T12:49:13;99357.50;;;14.60;49.57
10460;BME280;54412;51.206;6.888;2024-03-02T12:51:40;99369.34;;;14.36;50.39
10460;BME280;54412;51.206;6.888;2024-03-02T12:54:10;99365.19;;;14.43;50.23
10460;BME280;54412;51.206;6.888;2024-03-02T12:56:41;99351.63;;;14.36;50.21
10460;BME280;54412;51.206;6.888;2024-03-02T12:59:23;99351.91;;;14.33;50.41
10460;BME280;54412;51.206;6.888;2024-03-02T13:01:56;99343.97;;;14.43;50.64
10460;BME280;54412;51.206;6.888;2024-03-02T13:04:25;99336.94;;;14.32;50.68
10460;BME280;54412;51.206;6.888;2024-03-02T13:06:52;99331.22;;;14.27;50.94
10460;BME280;54412;51.206;6.888;2024-03-02T13:09:18;99334.06;;;14.35;50.62
10460;BME280;54412;51.206;6.888;2024-03-02T13:11:44;99338.56;;;14.24;51.22
10460;BME280;54412;51.206;6.888;2024-03-02T13:14:11;99343.28;;;14.20;51.79
10460;BME280;54412;51.206;6.888;2024-03-02T13:16:40;99337.47;;;14.06;52.22